Search for airport 
image banner adimage banner ad
image banner ad

VOMD - Madurai

Located in Madurai, India

ICAO - VOMD, IATA - IXM

Data provided by Airmate  

General information

Coordinates: N9°50'6" E78°5'19"
Elevation is 462 feet MSL.
 
View others Airports in Tamil Nadu

Operational data

Open for public use
Current time UTC:
Current local time:
Weather
TAF: TAF VOMD 272300Z 2800/2906 VRB02KT 2000 BR FEW020 SCT100 BECMG 2805/2806 09010KT 5000 HZ BECMG 2812/2813 VRB02KT 3000 BR BECMG 2821/2822 1500 BR BECMG 2905/2906 09010KT 5000 HZ
View NOTAMs / SUP AIP / TFR affecting this airport [VIEW]
Communications frequencies: [VIEW]

Runways:

RWY identifierQFULength (ft)Width (ft)SurfaceLDA (ft)
0986°5990148ASP
27266°7497148

Airport contact information

Address: Madurai India

Satellite view of VOMD